createdAt,value
2023-04-26T00:02:27.638Z,15.63
2023-04-26T00:05:01.629Z,16.07
2023-04-26T00:07:32.742Z,18.83
2023-04-26T00:10:03.430Z,19.97
2023-04-26T00:12:33.756Z,15.90
2023-04-26T00:15:05.305Z,17.83
2023-04-26T00:17:37.081Z,16.12
2023-04-26T00:20:12.493Z,15.78
2023-04-26T00:22:42.621Z,17.30
2023-04-26T00:25:14.791Z,15.37
2023-04-26T00:27:45.317Z,17.50
2023-04-26T00:30:17.299Z,15.30
2023-04-26T00:32:48.331Z,15.13
2023-04-26T00:35:19.769Z,15.25
2023-04-26T00:37:50.499Z,17.27
2023-04-26T00:40:22.068Z,14.33
2023-04-26T00:42:58.924Z,15.15
2023-04-26T00:45:30.530Z,14.73
2023-04-26T00:48:02.959Z,15.47
2023-04-26T00:50:33.594Z,15.40
2023-04-26T00:53:07.181Z,16.07
2023-04-26T00:55:38.130Z,15.57
2023-04-26T00:58:08.470Z,17.83
2023-04-26T01:00:39.173Z,14.97
2023-04-26T01:03:10.818Z,15.03
2023-04-26T01:05:42.073Z,15.32
2023-04-26T01:08:16.859Z,16.07
2023-04-26T01:10:49.089Z,14.97
2023-04-26T01:13:19.590Z,15.53
2023-04-26T01:15:51.260Z,17.80
2023-04-26T01:18:21.674Z,14.97
2023-04-26T01:20:53.636Z,15.48
2023-04-26T01:23:23.957Z,16.40
2023-04-26T01:25:56.131Z,15.43
2023-04-26T01:28:26.446Z,16.00
2023-04-26T01:30:56.312Z,18.23
2023-04-26T01:33:27.085Z,15.17
2023-04-26T01:35:57.621Z,16.47
2023-04-26T01:38:27.938Z,15.13
2023-04-26T01:40:58.260Z,14.57
2023-04-26T01:43:28.373Z,14.77
2023-04-26T01:48:32.912Z,15.05
2023-04-26T01:51:04.651Z,15.47
2023-04-26T01:53:36.632Z,14.53
2023-04-26T01:56:09.406Z,14.40
2023-04-26T01:58:41.167Z,13.60
2023-04-26T02:01:11.718Z,14.87
2023-04-26T02:03:41.866Z,15.53
2023-04-26T02:06:12.567Z,15.03
2023-04-26T02:08:42.462Z,15.53
2023-04-26T02:11:12.072Z,15.00
2023-04-26T02:13:42.488Z,13.90
2023-04-26T02:16:12.694Z,14.07
2023-04-26T02:18:43.857Z,14.33
2023-04-26T02:21:16.574Z,14.13
2023-04-26T02:23:47.268Z,15.32
2023-04-26T02:26:17.605Z,15.30
2023-04-26T02:28:48.315Z,15.77
2023-04-26T02:31:19.624Z,15.13
2023-04-26T02:33:51.420Z,14.93
2023-04-26T02:36:22.154Z,13.97
2023-04-26T02:38:53.464Z,15.47
2023-04-26T02:41:24.641Z,17.63
2023-04-26T02:43:55.169Z,16.27
2023-04-26T02:46:25.410Z,18.03
2023-04-26T02:48:55.832Z,18.10
2023-04-26T02:51:27.182Z,13.70
2023-04-26T02:53:57.285Z,15.67
2023-04-26T02:56:29.039Z,15.77
2023-04-26T02:58:59.764Z,15.23
2023-04-26T03:01:30.564Z,14.70
2023-04-26T03:04:01.087Z,17.47
2023-04-26T03:06:32.988Z,16.50
2023-04-26T03:09:05.175Z,17.12
2023-04-26T03:14:05.614Z,16.43
2023-04-26T03:16:43.216Z,17.37
2023-04-26T03:19:14.232Z,14.87
2023-04-26T03:21:45.366Z,17.13
2023-04-26T03:24:15.902Z,15.20
2023-04-26T03:26:46.017Z,17.73
2023-04-26T03:29:17.977Z,16.50
2023-04-26T03:31:48.334Z,16.17
2023-04-26T03:34:18.830Z,16.67
2023-04-26T03:36:49.561Z,17.50
2023-04-26T03:39:20.497Z,18.83
2023-04-26T03:41:51.024Z,17.20
2023-04-26T03:44:21.152Z,16.30
2023-04-26T03:46:51.674Z,18.67
2023-04-26T03:49:22.413Z,16.83
2023-04-26T03:51:53.347Z,19.13
2023-04-26T03:54:24.071Z,17.67
2023-04-26T03:56:55.417Z,17.93
2023-04-26T03:59:26.149Z,19.23
2023-04-26T04:01:57.134Z,20.43
2023-04-26T04:04:28.096Z,18.87
2023-04-26T04:06:59.586Z,20.10
2023-04-26T04:09:29.899Z,18.80
2023-04-26T04:12:00.832Z,19.00
2023-04-26T04:14:31.564Z,16.63
2023-04-26T04:17:02.296Z,17.73
2023-04-26T04:19:34.465Z,17.27
2023-04-26T04:22:05.197Z,18.43
2023-04-26T04:24:35.931Z,18.03
2023-04-26T04:27:07.279Z,19.20
2023-04-26T04:29:38.007Z,19.10
2023-04-26T04:32:09.760Z,19.53
2023-04-26T04:34:41.318Z,17.30
2023-04-26T04:37:12.471Z,17.60
2023-04-26T04:39:43.398Z,19.17
2023-04-26T04:42:13.933Z,19.03
2023-04-26T04:44:45.477Z,19.10
2023-04-26T04:47:17.199Z,21.23
2023-04-26T04:49:47.756Z,19.27
2023-04-26T04:52:19.511Z,22.13
2023-04-26T04:54:50.050Z,18.97
2023-04-26T04:57:20.981Z,20.37
2023-04-26T04:59:51.708Z,20.07
2023-04-26T05:02:22.392Z,19.27
2023-04-26T05:04:53.060Z,18.60
2023-04-26T05:07:24.606Z,17.90
2023-04-26T05:09:56.895Z,18.07
2023-04-26T05:12:27.646Z,20.33
2023-04-26T05:14:57.558Z,17.53
2023-04-26T05:17:30.458Z,20.13
2023-04-26T05:20:03.856Z,20.43
2023-04-26T05:22:36.207Z,18.23
2023-04-26T05:25:13.123Z,17.13
2023-04-26T05:27:45.289Z,21.33
2023-04-26T05:30:24.067Z,17.20
2023-04-26T05:33:23.049Z,16.73
2023-04-26T05:35:59.930Z,16.43
2023-04-26T05:38:30.654Z,18.13
2023-04-26T05:41:01.185Z,20.37
2023-04-26T05:43:32.738Z,20.23
2023-04-26T05:46:02.927Z,15.08
2023-04-26T05:48:33.586Z,15.43
2023-04-26T05:51:04.755Z,15.07
2023-04-26T05:53:34.847Z,16.70
2023-04-26T05:56:07.225Z,19.50
2023-04-26T05:58:38.970Z,17.20
2023-04-26T06:01:09.699Z,14.15
2023-04-26T06:03:41.626Z,16.70
2023-04-26T06:06:13.009Z,17.60
2023-04-26T06:08:45.384Z,14.67
2023-04-26T06:11:16.746Z,14.13
2023-04-26T06:13:46.853Z,14.10
2023-04-26T06:16:17.286Z,13.73
2023-04-26T06:18:47.896Z,16.33
2023-04-26T06:21:18.636Z,16.13
2023-04-26T06:23:50.598Z,15.50
2023-04-26T06:26:22.761Z,17.30
2023-04-26T06:28:54.311Z,15.40
2023-04-26T06:31:24.302Z,14.68
2023-04-26T06:33:55.697Z,15.27
2023-04-26T06:36:27.655Z,13.20
2023-04-26T06:38:58.469Z,12.90
2023-04-26T06:41:28.795Z,12.83
2023-04-26T06:43:59.732Z,13.03
2023-04-26T06:46:34.191Z,13.43
2023-04-26T06:49:04.677Z,13.80
2023-04-26T06:51:35.217Z,13.23
2023-04-26T06:54:05.945Z,11.13
2023-04-26T06:56:36.675Z,11.83
2023-04-26T06:59:08.220Z,11.00
2023-04-26T07:01:39.219Z,10.00
2023-04-26T07:04:10.871Z,11.23
2023-04-26T07:09:11.976Z,12.53
2023-04-26T07:11:42.457Z,11.23
2023-04-26T07:14:13.067Z,11.63
2023-04-26T07:16:42.993Z,11.57
2023-04-26T07:19:13.265Z,11.90
2023-04-26T07:21:42.916Z,15.43
2023-04-26T07:24:13.836Z,9.63
2023-04-26T07:26:43.833Z,11.77
2023-04-26T07:29:13.747Z,11.77
2023-04-26T07:31:44.059Z,12.87
2023-04-26T07:34:14.794Z,12.80
2023-04-26T07:36:45.935Z,13.30
2023-04-26T07:39:16.677Z,10.83
2023-04-26T07:41:47.617Z,9.53
2023-04-26T07:44:17.733Z,11.40
2023-04-26T07:46:48.050Z,9.90
2023-04-26T07:49:18.168Z,11.53
2023-04-26T07:51:50.736Z,14.03
2023-04-26T07:54:21.278Z,11.60
2023-04-26T07:56:51.596Z,8.97
2023-04-26T07:59:22.117Z,9.80
2023-04-26T08:01:52.109Z,8.70
2023-04-26T08:04:33.356Z,9.90
2023-04-26T08:07:03.739Z,10.00
2023-04-26T08:09:34.675Z,12.53
2023-04-26T08:12:08.234Z,9.63
2023-04-26T08:14:38.812Z,9.53
2023-04-26T08:17:09.597Z,8.03
2023-04-26T08:19:40.884Z,9.93
2023-04-26T08:22:11.212Z,10.88
2023-04-26T08:24:41.729Z,8.17
2023-04-26T08:27:12.463Z,9.13
2023-04-26T08:29:43.210Z,9.60
2023-04-26T08:32:13.721Z,8.50
2023-04-26T08:34:44.456Z,8.53
2023-04-26T08:37:15.612Z,8.57
2023-04-26T08:39:47.350Z,6.93
2023-04-26T08:42:18.672Z,6.67
2023-04-26T08:44:49.033Z,8.53
2023-04-26T08:47:31.116Z,10.07
2023-04-26T08:52:35.551Z,6.70
2023-04-26T08:55:10.193Z,8.33
2023-04-26T08:57:41.127Z,6.97
2023-04-26T09:00:16.452Z,6.70
2023-04-26T09:02:50.670Z,5.60
2023-04-26T09:05:23.669Z,7.37
2023-04-26T09:08:00.285Z,6.53
2023-04-26T09:10:31.794Z,7.57
2023-04-26T09:13:01.900Z,6.33
2023-04-26T09:15:32.052Z,7.10
2023-04-26T09:18:20.796Z,6.43
2023-04-26T09:21:09.209Z,8.47
2023-04-26T09:23:59.112Z,6.13
2023-04-26T09:26:29.852Z,5.30
2023-04-26T09:29:15.108Z,5.57
2023-04-26T09:31:49.492Z,6.30
2023-04-26T09:34:20.674Z,8.33
2023-04-26T09:36:56.533Z,6.03
2023-04-26T09:39:35.386Z,5.17
2023-04-26T09:42:08.255Z,4.93
2023-04-26T09:44:39.158Z,6.17
2023-04-26T09:47:11.918Z,5.47
2023-04-26T09:49:50.199Z,5.33
2023-04-26T09:52:20.800Z,5.13
2023-04-26T09:54:52.333Z,5.97
2023-04-26T09:57:23.813Z,6.00
2023-04-26T09:59:56.054Z,5.17
2023-04-26T10:02:29.335Z,5.60
2023-04-26T10:05:01.677Z,6.03
2023-04-26T10:07:32.786Z,4.43
2023-04-26T10:10:04.195Z,5.78
2023-04-26T10:12:35.997Z,4.58
2023-04-26T10:15:10.985Z,5.57
2023-04-26T10:17:41.692Z,4.87
2023-04-26T10:20:13.992Z,6.90
2023-04-26T10:22:50.459Z,5.03
2023-04-26T10:25:34.916Z,6.27
2023-04-26T10:28:05.454Z,6.53
2023-04-26T10:30:56.674Z,5.40
2023-04-26T10:33:27.600Z,9.38
2023-04-26T10:36:10.193Z,4.60
2023-04-26T10:38:42.813Z,5.00
2023-04-26T10:41:33.956Z,4.97
2023-04-26T10:44:39.156Z,7.83
2023-04-26T10:47:21.571Z,3.73
2023-04-26T10:49:51.863Z,5.93
2023-04-26T10:52:22.806Z,3.90
2023-04-26T10:54:55.253Z,4.28
2023-04-26T10:57:46.817Z,4.60
2023-04-26T11:03:03.083Z,4.95
2023-04-26T11:05:50.953Z,3.83
2023-04-26T11:08:25.565Z,5.67
2023-04-26T11:11:10.644Z,5.27
2023-04-26T11:13:42.457Z,4.10
2023-04-26T11:16:14.044Z,5.70
2023-04-26T11:18:46.301Z,3.83
2023-04-26T11:21:19.262Z,3.63
2023-04-26T11:23:56.107Z,3.93
2023-04-26T11:26:34.083Z,4.20
2023-04-26T11:29:08.100Z,4.13
2023-04-26T11:31:37.972Z,3.87
2023-04-26T11:34:08.532Z,4.77
2023-04-26T11:36:39.471Z,3.43
2023-04-26T11:39:11.582Z,3.72
2023-04-26T11:41:44.015Z,5.90
2023-04-26T11:44:18.012Z,2.95
2023-04-26T11:46:49.655Z,4.23
2023-04-26T11:49:20.515Z,4.63
2023-04-26T11:51:51.448Z,4.92
2023-04-26T11:54:32.625Z,3.33
2023-04-26T11:57:15.401Z,5.75
2023-04-26T11:59:47.007Z,3.07
2023-04-26T12:02:18.593Z,4.67
2023-04-26T12:04:59.220Z,4.20
2023-04-26T12:07:35.576Z,3.52
2023-04-26T12:10:21.865Z,2.90
2023-04-26T12:12:54.050Z,3.07
2023-04-26T12:15:32.135Z,4.37
2023-04-26T12:18:08.414Z,4.00
2023-04-26T12:20:40.399Z,3.53
2023-04-26T12:23:13.974Z,3.73
2023-04-26T12:25:55.353Z,4.33
2023-04-26T12:28:25.678Z,3.73
2023-04-26T12:30:56.418Z,2.20
2023-04-26T12:33:26.953Z,2.52
2023-04-26T12:35:59.861Z,2.80
2023-04-26T12:38:31.884Z,6.93
2023-04-26T12:41:03.434Z,5.77
2023-04-26T12:43:35.193Z,5.63
2023-04-26T12:48:36.448Z,11.53
2023-04-26T12:51:09.027Z,9.07
2023-04-26T12:53:39.549Z,21.63
2023-04-26T12:56:10.294Z,9.57
2023-04-26T12:58:41.021Z,9.28
2023-04-26T13:01:13.611Z,5.23
2023-04-26T13:03:45.074Z,7.07
2023-04-26T13:06:18.546Z,4.47
2023-04-26T13:08:48.669Z,4.53
2023-04-26T13:11:18.785Z,3.10
2023-04-26T13:13:49.921Z,4.77
2023-04-26T13:16:20.300Z,7.67
2023-04-26T13:18:50.970Z,5.47
2023-04-26T13:21:21.499Z,4.53
2023-04-26T13:23:51.410Z,2.90
2023-04-26T13:26:21.513Z,3.93
2023-04-26T13:28:52.057Z,2.50
2023-04-26T13:31:22.022Z,2.77
2023-04-26T13:33:52.707Z,3.20
2023-04-26T13:36:22.820Z,4.37
2023-04-26T13:38:53.554Z,3.40
2023-04-26T13:41:25.104Z,5.07
2023-04-26T13:43:55.650Z,5.17
2023-04-26T13:46:26.400Z,3.73
2023-04-26T13:48:57.305Z,5.00
2023-04-26T13:51:30.222Z,3.77
2023-04-26T13:54:00.195Z,3.90
2023-04-26T13:56:30.324Z,3.27
2023-04-26T13:59:03.025Z,3.27
2023-04-26T14:01:35.752Z,3.80
2023-04-26T14:04:10.023Z,4.30
2023-04-26T14:06:40.415Z,2.77
2023-04-26T14:09:11.660Z,3.30
2023-04-26T14:11:41.877Z,3.87
2023-04-26T14:14:12.610Z,3.50
2023-04-26T14:16:42.640Z,3.67
2023-04-26T14:19:15.061Z,2.03
2023-04-26T14:21:45.834Z,3.90
2023-04-26T14:24:16.562Z,3.90
2023-04-26T14:26:47.512Z,10.13
2023-04-26T14:29:17.824Z,2.65
2023-04-26T14:31:47.471Z,4.40
2023-04-26T14:34:18.065Z,3.30
2023-04-26T14:36:48.588Z,3.07
2023-04-26T14:39:19.320Z,3.57
2023-04-26T14:41:50.261Z,2.70
2023-04-26T14:44:22.812Z,11.57
2023-04-26T14:46:52.570Z,4.00
2023-04-26T14:49:23.073Z,4.27
2023-04-26T14:51:53.848Z,3.50
2023-04-26T14:54:24.745Z,5.47
2023-04-26T14:56:54.865Z,3.30
2023-04-26T14:59:25.391Z,5.13
2023-04-26T15:01:56.272Z,4.37
2023-04-26T15:04:27.217Z,4.47
2023-04-26T15:06:58.406Z,4.47
2023-04-26T15:09:30.817Z,4.00
2023-04-26T15:12:02.132Z,5.53
2023-04-26T15:14:32.447Z,5.42
2023-04-26T15:17:02.850Z,7.20
2023-04-26T15:19:34.117Z,7.83
2023-04-26T15:22:05.463Z,7.10
2023-04-26T15:24:38.239Z,7.13
2023-04-26T15:27:08.569Z,7.93
2023-04-26T15:29:39.098Z,7.40
2023-04-26T15:32:09.420Z,7.47
2023-04-26T15:34:43.256Z,9.23
2023-04-26T15:37:15.389Z,7.63
2023-04-26T15:39:47.349Z,6.47
2023-04-26T15:42:17.872Z,5.03
2023-04-26T15:44:48.607Z,3.97
2023-04-26T15:47:18.914Z,4.60
2023-04-26T15:49:50.909Z,5.03
2023-04-26T15:52:21.622Z,5.97
2023-04-26T15:54:52.158Z,6.37
2023-04-26T15:57:23.087Z,7.07
2023-04-26T15:59:53.625Z,10.58
2023-04-26T16:02:23.386Z,8.57
2023-04-26T16:04:54.736Z,8.20
2023-04-26T16:07:25.201Z,7.50
2023-04-26T16:09:56.144Z,7.63
2023-04-26T16:12:27.086Z,7.27
2023-04-26T16:14:57.811Z,7.80
2023-04-26T16:17:27.948Z,10.67
2023-04-26T16:19:58.045Z,10.00
2023-04-26T16:22:29.601Z,6.53
2023-04-26T16:25:01.572Z,7.65
2023-04-26T16:27:31.882Z,5.92
2023-04-26T16:30:03.434Z,5.72
2023-04-26T16:32:33.799Z,4.33
2023-04-26T16:35:04.695Z,6.20
2023-04-26T16:37:35.425Z,4.97
2023-04-26T16:40:10.734Z,4.73
2023-04-26T16:42:42.826Z,7.13
2023-04-26T16:47:47.180Z,4.33
2023-04-26T16:50:18.102Z,4.57
2023-04-26T16:52:48.093Z,5.87
2023-04-26T16:55:19.116Z,3.67
2023-04-26T16:57:49.058Z,6.90
2023-04-26T17:00:21.013Z,6.03
2023-04-26T17:02:51.275Z,6.93
2023-04-26T17:05:22.454Z,6.07
2023-04-26T17:07:52.825Z,5.90
2023-04-26T17:10:25.973Z,6.83
2023-04-26T17:12:55.633Z,6.07
2023-04-26T17:15:26.858Z,5.90
2023-04-26T17:17:57.626Z,5.60
2023-04-26T17:20:28.540Z,6.43
2023-04-26T17:22:59.670Z,6.67
2023-04-26T17:25:31.039Z,6.03
2023-04-26T17:28:01.338Z,6.70
2023-04-26T17:30:32.281Z,6.37
2023-04-26T17:33:02.910Z,5.50
2023-04-26T17:35:33.737Z,5.97
2023-04-26T17:38:04.507Z,6.05
2023-04-26T17:40:34.791Z,8.33
2023-04-26T17:43:04.708Z,7.60
2023-04-26T17:45:34.632Z,7.27
2023-04-26T17:48:10.555Z,8.07
2023-04-26T17:50:41.208Z,8.53
2023-04-26T17:53:12.561Z,10.40
2023-04-26T17:55:43.489Z,10.10
2023-04-26T17:58:14.019Z,9.17
2023-04-26T18:00:44.953Z,8.93
2023-04-26T18:03:15.664Z,7.93
2023-04-26T18:05:46.252Z,8.80
2023-04-26T18:08:17.152Z,9.03
2023-04-26T18:10:50.134Z,6.60
2023-04-26T18:13:21.124Z,7.67
2023-04-26T18:15:55.322Z,8.17
2023-04-26T18:18:27.801Z,9.63
2023-04-26T18:20:58.186Z,6.73
2023-04-26T18:23:28.920Z,6.37
2023-04-26T18:25:59.648Z,8.63
2023-04-26T18:28:30.801Z,6.00
2023-04-26T18:31:03.021Z,5.10
2023-04-26T18:33:33.698Z,5.97
2023-04-26T18:36:05.246Z,5.87
2023-04-26T18:38:35.978Z,6.47
2023-04-26T18:41:06.502Z,5.77
2023-04-26T18:43:36.623Z,5.07
2023-04-26T18:46:08.463Z,7.07
2023-04-26T18:48:41.159Z,7.77
2023-04-26T18:51:11.277Z,4.53
2023-04-26T18:53:42.006Z,5.13
2023-04-26T18:56:12.735Z,5.43
2023-04-26T18:58:43.305Z,5.17
2023-04-26T19:01:20.401Z,5.93
2023-04-26T19:03:51.837Z,3.93
2023-04-26T19:06:22.252Z,3.95
2023-04-26T19:08:53.376Z,4.20
2023-04-26T19:11:26.975Z,3.37
2023-04-26T19:13:57.086Z,4.07
2023-04-26T19:16:28.567Z,5.90
2023-04-26T19:19:02.676Z,5.22
2023-04-26T19:21:33.583Z,6.23
2023-04-26T19:24:04.934Z,4.53
2023-04-26T19:26:36.711Z,4.83
2023-04-26T19:29:07.258Z,8.23
2023-04-26T19:31:37.365Z,4.83
2023-04-26T19:34:08.063Z,3.87
2023-04-26T19:36:42.085Z,4.33
2023-04-26T19:39:13.218Z,3.87
2023-04-26T19:41:43.931Z,4.77
2023-04-26T19:44:14.077Z,4.53
2023-04-26T19:46:46.272Z,6.67
2023-04-26T19:49:16.355Z,5.37
2023-04-26T19:51:46.491Z,5.77
2023-04-26T19:54:18.234Z,5.37
2023-04-26T19:56:48.553Z,5.50
2023-04-26T19:59:19.289Z,6.07
2023-04-26T20:01:52.282Z,6.43
2023-04-26T20:04:24.207Z,5.83
2023-04-26T20:06:54.966Z,5.60
2023-04-26T20:09:25.492Z,4.63
2023-04-26T20:11:56.233Z,5.63
2023-04-26T20:14:29.651Z,4.77
2023-04-26T20:17:01.665Z,4.40
2023-04-26T20:22:00.994Z,6.93
2023-04-26T20:24:32.757Z,6.00
2023-04-26T20:27:03.077Z,5.35
2023-04-26T20:29:34.011Z,6.73
2023-04-26T20:32:05.438Z,5.93
2023-04-26T20:34:36.086Z,6.60
2023-04-26T20:37:07.233Z,6.77
2023-04-26T20:39:37.757Z,6.67
2023-04-26T20:42:09.308Z,5.87
2023-04-26T20:44:39.849Z,5.53
2023-04-26T20:47:09.912Z,5.40
2023-04-26T20:49:40.691Z,6.00
2023-04-26T20:52:12.447Z,5.63
2023-04-26T20:54:43.752Z,6.42
2023-04-26T20:57:14.529Z,6.23
2023-04-26T20:59:45.877Z,6.60
2023-04-26T21:02:16.148Z,5.17
2023-04-26T21:04:47.134Z,5.33
2023-04-26T21:07:17.457Z,4.53
2023-04-26T21:09:48.803Z,5.20
2023-04-26T21:12:18.727Z,4.43
2023-04-26T21:14:49.859Z,5.97
2023-04-26T21:17:19.734Z,5.70
2023-04-26T21:19:50.505Z,5.63
2023-04-26T21:22:21.041Z,4.13
2023-04-26T21:24:52.990Z,5.70
2023-04-26T21:27:23.320Z,4.43
2023-04-26T21:29:53.841Z,5.67
2023-04-26T21:32:23.640Z,5.83
2023-04-26T21:34:53.677Z,5.43
2023-04-26T21:37:24.001Z,6.67
2023-04-26T21:39:54.520Z,4.63
2023-04-26T21:42:25.252Z,5.53
2023-04-26T21:44:55.786Z,5.67
2023-04-26T21:47:25.948Z,7.30
2023-04-26T21:49:56.634Z,6.83
2023-04-26T21:52:27.159Z,8.07
2023-04-26T21:54:58.093Z,6.33
2023-04-26T21:57:28.838Z,5.30
2023-04-26T21:59:59.558Z,5.13
2023-04-26T22:02:29.583Z,4.93
2023-04-26T22:05:00.209Z,4.97
2023-04-26T22:07:30.958Z,5.57
2023-04-26T22:10:03.105Z,5.20
2023-04-26T22:12:33.840Z,6.33
2023-04-26T22:15:06.422Z,5.60
2023-04-26T22:20:08.042Z,6.10
2023-04-26T22:22:38.400Z,5.83
2023-04-26T22:25:11.114Z,6.17
2023-04-26T22:27:41.924Z,5.53
2023-04-26T22:30:24.750Z,6.55
2023-04-26T22:32:58.887Z,6.57
2023-04-26T22:35:29.680Z,6.37
2023-04-26T22:38:00.222Z,6.60
2023-04-26T22:40:31.756Z,7.07
2023-04-26T22:43:02.292Z,5.43
2023-04-26T22:45:33.197Z,6.33
2023-04-26T22:48:03.386Z,7.60
2023-04-26T22:50:34.734Z,5.53
2023-04-26T22:53:05.648Z,6.47
2023-04-26T22:55:35.949Z,7.50
2023-04-26T22:58:06.069Z,7.47
2023-04-26T23:00:36.591Z,10.23
2023-04-26T23:03:06.470Z,8.53
2023-04-26T23:05:38.056Z,6.93
2023-04-26T23:08:08.995Z,7.10
2023-04-26T23:10:40.728Z,7.40
2023-04-26T23:13:11.279Z,7.62
2023-04-26T23:15:42.218Z,11.40
2023-04-26T23:18:13.364Z,7.20
2023-04-26T23:20:43.268Z,9.47
2023-04-26T23:23:14.216Z,8.40
2023-04-26T23:25:44.736Z,9.07
2023-04-26T23:28:14.654Z,7.67
2023-04-26T23:30:44.559Z,10.43
2023-04-26T23:33:14.492Z,7.70
2023-04-26T23:35:44.594Z,7.50
2023-04-26T23:38:15.947Z,9.90
2023-04-26T23:40:46.687Z,8.40
2023-04-26T23:43:17.405Z,9.10
2023-04-26T23:45:48.089Z,11.23
2023-04-26T23:48:19.282Z,9.63
2023-04-26T23:50:49.805Z,9.03
2023-04-26T23:53:20.545Z,9.87
2023-04-26T23:55:51.067Z,10.60
2023-04-26T23:58:21.594Z,8.50
